sensor_id;sensor_type;location;lat;lon;timestamp;pressure;altitude;pressure_sealevel;temperature;humidity
6096;BME280;25081;42.698;23.298;2024-03-23T00:54:35;95337.69;;;3.62;77.24
6096;BME280;25081;42.698;23.298;2024-03-23T00:56:44;95337.42;;;3.80;76.85
6096;BME280;25081;42.698;23.298;2024-03-23T00:58:52;95332.15;;;3.80;76.70
6096;BME280;25081;42.698;23.298;2024-03-23T01:01:01;95341.55;;;3.78;76.81
6096;BME280;25081;42.698;23.298;2024-03-23T01:03:11;95332.38;;;3.70;77.00
6096;BME280;25081;42.698;23.298;2024-03-23T01:05:19;95330.69;;;3.77;77.20
6096;BME280;25081;42.698;23.298;2024-03-23T01:07:28;95333.16;;;3.74;76.96
6096;BME280;25081;42.698;23.298;2024-03-23T01:09:37;95325.42;;;3.73;77.11
6096;BME280;25081;42.698;23.298;2024-03-23T01:11:46;95326.70;;;3.81;77.11
6096;BME280;25081;42.698;23.298;2024-03-23T01:13:55;95320.65;;;3.72;76.53
6096;BME280;25081;42.698;23.298;2024-03-23T01:16:05;95323.61;;;3.73;76.60
6096;BME280;25081;42.698;23.298;2024-03-23T01:18:13;95325.42;;;3.73;76.63
6096;BME280;25081;42.698;23.298;2024-03-23T01:20:22;95330.02;;;3.75;76.95
6096;BME280;25081;42.698;23.298;2024-03-23T01:22:31;95324.70;;;3.56;76.93
6096;BME280;25081;42.698;23.298;2024-03-23T01:24:40;95326.02;;;3.56;76.84
6096;BME280;25081;42.698;23.298;2024-03-23T01:26:49;95326.73;;;3.46;76.61
6096;BME280;25081;42.698;23.298;2024-03-23T01:28:57;95336.34;;;3.39;76.90
6096;BME280;25081;42.698;23.298;2024-03-23T01:31:06;95314.05;;;3.19;77.34
6096;BME280;25081;42.698;23.298;2024-03-23T01:33:15;95332.24;;;3.32;77.29
6096;BME280;25081;42.698;23.298;2024-03-23T01:35:23;95312.34;;;3.30;76.96
6096;BME280;25081;42.698;23.298;2024-03-23T01:37:32;95329.04;;;3.45;76.56
6096;BME280;25081;42.698;23.298;2024-03-23T01:39:41;95313.37;;;3.16;76.89
6096;BME280;25081;42.698;23.298;2024-03-23T01:41:50;95328.47;;;3.31;76.87
6096;BME280;25081;42.698;23.298;2024-03-23T01:43:58;95326.16;;;3.28;76.91
6096;BME280;25081;42.698;23.298;2024-03-23T01:46:07;95323.81;;;3.37;76.69
6096;BME280;25081;42.698;23.298;2024-03-23T01:48:16;95321.23;;;3.25;77.14
6096;BME280;25081;42.698;23.298;2024-03-23T01:50:24;95317.96;;;3.23;77.29
6096;BME280;25081;42.698;23.298;2024-03-23T01:52:33;95328.73;;;3.05;77.71
6096;BME280;25081;42.698;23.298;2024-03-23T01:54:42;95330.38;;;3.10;78.17
6096;BME280;25081;42.698;23.298;2024-03-23T01:56:50;95329.55;;;3.09;78.15
6096;BME280;25081;42.698;23.298;2024-03-23T01:58:59;95333.00;;;3.10;78.18
6096;BME280;25081;42.698;23.298;2024-03-23T02:01:08;95327.41;;;3.05;78.59
6096;BME280;25081;42.698;23.298;2024-03-23T02:03:26;95333.00;;;3.06;78.39
6096;BME280;25081;42.698;23.298;2024-03-23T02:05:34;95329.41;;;3.03;78.32
6096;BME280;25081;42.698;23.298;2024-03-23T02:07:43;95325.30;;;3.00;78.26
6096;BME280;25081;42.698;23.298;2024-03-23T02:09:52;95330.57;;;3.00;78.66
6096;BME280;25081;42.698;23.298;2024-03-23T02:12:02;95340.62;;;2.93;78.98
6096;BME280;25081;42.698;23.298;2024-03-23T02:14:11;95331.39;;;3.01;78.54
6096;BME280;25081;42.698;23.298;2024-03-23T02:16:20;95336.83;;;2.99;78.53
6096;BME280;25081;42.698;23.298;2024-03-23T02:18:28;95341.25;;;2.99;78.70
6096;BME280;25081;42.698;23.298;2024-03-23T02:20:37;95335.53;;;2.87;79.19
6096;BME280;25081;42.698;23.298;2024-03-23T02:22:46;95341.48;;;2.77;79.57
6096;BME280;25081;42.698;23.298;2024-03-23T02:24:55;95347.08;;;2.70;79.86
6096;BME280;25081;42.698;23.298;2024-03-23T02:27:04;95343.14;;;2.74;79.75
6096;BME280;25081;42.698;23.298;2024-03-23T02:29:12;95341.17;;;2.68;79.72
6096;BME280;25081;42.698;23.298;2024-03-23T02:31:21;95339.36;;;2.68;79.58
6096;BME280;25081;42.698;23.298;2024-03-23T02:33:30;95345.14;;;2.64;79.79
6096;BME280;25081;42.698;23.298;2024-03-23T02:35:39;95347.28;;;2.64;79.71
6096;BME280;25081;42.698;23.298;2024-03-23T02:37:48;95346.30;;;2.57;79.81
6096;BME280;25081;42.698;23.298;2024-03-23T02:39:57;95346.96;;;2.55;80.02
6096;BME280;25081;42.698;23.298;2024-03-23T02:42:05;95339.41;;;2.52;80.14
6096;BME280;25081;42.698;23.298;2024-03-23T02:44:14;95334.28;;;2.50;80.07
6096;BME280;25081;42.698;23.298;2024-03-23T02:46:23;95337.41;;;2.50;80.27
6096;BME280;25081;42.698;23.298;2024-03-23T02:48:31;95341.67;;;2.59;80.14
6096;BME280;25081;42.698;23.298;2024-03-23T02:50:40;95340.86;;;2.58;79.86
6096;BME280;25081;42.698;23.298;2024-03-23T02:52:49;95342.04;;;2.52;80.20
6096;BME280;25081;42.698;23.298;2024-03-23T02:54:58;95335.95;;;2.51;80.28
6096;BME280;25081;42.698;23.298;2024-03-23T02:57:07;95333.50;;;2.42;80.57
6096;BME280;25081;42.698;23.298;2024-03-23T02:59:15;95332.33;;;2.40;80.89
6096;BME280;25081;42.698;23.298;2024-03-23T03:01:24;95338.10;;;2.36;81.33
6096;BME280;25081;42.698;23.298;2024-03-23T03:03:33;95334.95;;;2.40;81.03
6096;BME280;25081;42.698;23.298;2024-03-23T03:05:42;95332.19;;;2.42;81.25
6096;BME280;25081;42.698;23.298;2024-03-23T03:07:50;95336.94;;;2.38;81.36
6096;BME280;25081;42.698;23.298;2024-03-23T03:09:59;95334.80;;;2.46;81.17
6096;BME280;25081;42.698;23.298;2024-03-23T03:12:08;95335.45;;;2.48;80.93
6096;BME280;25081;42.698;23.298;2024-03-23T03:14:17;95332.32;;;2.48;81.02
6096;BME280;25081;42.698;23.298;2024-03-23T03:16:25;95329.39;;;2.35;81.22
6096;BME280;25081;42.698;23.298;2024-03-23T03:18:34;95334.78;;;2.50;81.51
6096;BME280;25081;42.698;23.298;2024-03-23T03:20:43;95331.33;;;2.49;81.14
6096;BME280;25081;42.698;23.298;2024-03-23T03:22:52;95333.33;;;2.51;81.20
6096;BME280;25081;42.698;23.298;2024-03-23T03:25:01;95332.97;;;2.50;80.61
6096;BME280;25081;42.698;23.298;2024-03-23T03:27:10;95342.50;;;2.59;80.69
6096;BME280;25081;42.698;23.298;2024-03-23T03:29:19;95337.91;;;2.49;80.68
6096;BME280;25081;42.698;23.298;2024-03-23T03:31:28;95342.53;;;2.51;80.71
6096;BME280;25081;42.698;23.298;2024-03-23T03:33:36;95334.78;;;2.50;80.47
6096;BME280;25081;42.698;23.298;2024-03-23T03:35:45;95339.91;;;2.43;80.75
6096;BME280;25081;42.698;23.298;2024-03-23T03:37:53;95343.50;;;2.50;80.63
6096;BME280;25081;42.698;23.298;2024-03-23T03:40:02;95343.16;;;2.57;80.29
6096;BME280;25081;42.698;23.298;2024-03-23T03:42:11;95338.40;;;2.57;79.94
6096;BME280;25081;42.698;23.298;2024-03-23T03:44:20;95336.59;;;2.49;80.19
6096;BME280;25081;42.698;23.298;2024-03-23T03:46:29;95342.55;;;2.43;80.45
6096;BME280;25081;42.698;23.298;2024-03-23T03:48:38;95309.02;;;2.33;80.43
6096;BME280;25081;42.698;23.298;2024-03-23T03:50:46;95335.63;;;2.46;80.57
6096;BME280;25081;42.698;23.298;2024-03-23T03:52:55;95341.20;;;2.47;80.65
6096;BME280;25081;42.698;23.298;2024-03-23T03:55:06;95339.90;;;2.39;80.92
6096;BME280;25081;42.698;23.298;2024-03-23T03:57:13;95340.55;;;2.53;80.90
6096;BME280;25081;42.698;23.298;2024-03-23T03:59:22;95342.86;;;2.44;80.85
6096;BME280;25081;42.698;23.298;2024-03-23T04:01:31;95337.59;;;2.48;81.15
6096;BME280;25081;42.698;23.298;2024-03-23T04:03:39;95337.44;;;2.46;80.93
6096;BME280;25081;42.698;23.298;2024-03-23T04:05:52;95336.27;;;2.48;80.72
6096;BME280;25081;42.698;23.298;2024-03-23T04:08:00;95338.08;;;2.48;81.03
6096;BME280;25081;42.698;23.298;2024-03-23T04:10:09;95313.94;;;2.36;81.07
6096;BME280;25081;42.698;23.298;2024-03-23T04:12:18;95337.91;;;2.41;81.30
6096;BME280;25081;42.698;23.298;2024-03-23T04:14:27;95341.21;;;2.39;81.17
6096;BME280;25081;42.698;23.298;2024-03-23T04:16:36;95342.22;;;2.42;81.33
6096;BME280;25081;42.698;23.298;2024-03-23T04:18:44;95352.38;;;2.41;81.22
6096;BME280;25081;42.698;23.298;2024-03-23T04:20:53;95345.99;;;2.44;81.07
6096;BME280;25081;42.698;23.298;2024-03-23T04:23:02;95351.08;;;2.53;80.87
6096;BME280;25081;42.698;23.298;2024-03-23T04:25:10;95356.33;;;2.41;81.18
6096;BME280;25081;42.698;23.298;2024-03-23T04:27:19;95353.70;;;2.41;81.50
6096;BME280;25081;42.698;23.298;2024-03-23T04:29:28;95353.55;;;2.39;81.37
6096;BME280;25081;42.698;23.298;2024-03-23T04:31:36;95362.44;;;2.34;81.61
6096;BME280;25081;42.698;23.298;2024-03-23T04:33:45;95346.48;;;2.43;81.57
6096;BME280;25081;42.698;23.298;2024-03-23T04:35:54;95350.58;;;2.54;80.91
6096;BME280;25081;42.698;23.298;2024-03-23T04:38:03;95347.62;;;2.53;81.23
6096;BME280;25081;42.698;23.298;2024-03-23T04:40:12;95348.30;;;2.43;81.69
6096;BME280;25081;42.698;23.298;2024-03-23T04:42:21;95352.23;;;2.47;81.69
6096;BME280;25081;42.698;23.298;2024-03-23T04:44:30;95353.37;;;2.56;81.46
6096;BME280;25081;42.698;23.298;2024-03-23T04:46:38;95359.80;;;2.46;81.41
6096;BME280;25081;42.698;23.298;2024-03-23T04:48:47;95356.84;;;2.53;81.56
6096;BME280;25081;42.698;23.298;2024-03-23T04:50:59;95352.70;;;2.58;80.88
6096;BME280;25081;42.698;23.298;2024-03-23T04:53:07;95364.04;;;2.67;80.90
6096;BME280;25081;42.698;23.298;2024-03-23T04:55:16;95363.72;;;2.58;81.23
6096;BME280;25081;42.698;23.298;2024-03-23T04:57:25;95365.55;;;2.62;81.24
6096;BME280;25081;42.698;23.298;2024-03-23T04:59:34;95365.42;;;3.06;80.21
6096;BME280;25081;42.698;23.298;2024-03-23T05:01:42;95364.24;;;3.87;76.98
6096;BME280;25081;42.698;23.298;2024-03-23T05:03:51;95352.16;;;5.06;73.63
6096;BME280;25081;42.698;23.298;2024-03-23T05:06:00;95345.38;;;5.62;69.31
6096;BME280;25081;42.698;23.298;2024-03-23T05:08:09;95342.25;;;5.73;69.30
6096;BME280;25081;42.698;23.298;2024-03-23T05:10:17;95342.67;;;6.67;66.06
6096;BME280;25081;42.698;23.298;2024-03-23T05:12:26;95339.39;;;7.51;63.92
6096;BME280;25081;42.698;23.298;2024-03-23T05:14:35;95339.23;;;7.18;62.68
6096;BME280;25081;42.698;23.298;2024-03-23T05:16:44;95338.48;;;7.79;59.98
6096;BME280;25081;42.698;23.298;2024-03-23T05:18:52;95346.47;;;7.03;61.33
6096;BME280;25081;42.698;23.298;2024-03-23T05:21:01;95336.05;;;8.14;59.13
6096;BME280;25081;42.698;23.298;2024-03-23T05:23:10;95333.67;;;8.72;56.59
6096;BME280;25081;42.698;23.298;2024-03-23T05:25:19;95331.06;;;9.21;53.28
6096;BME280;25081;42.698;23.298;2024-03-23T05:27:27;95328.93;;;9.79;51.13
6096;BME280;25081;42.698;23.298;2024-03-23T05:29:36;95316.73;;;9.80;50.58
6096;BME280;25081;42.698;23.298;2024-03-23T05:31:45;95324.88;;;9.40;51.44
6096;BME280;25081;42.698;23.298;2024-03-23T05:33:54;95330.79;;;9.94;50.42
6096;BME280;25081;42.698;23.298;2024-03-23T05:36:03;95327.64;;;10.48;48.24
6096;BME280;25081;42.698;23.298;2024-03-23T05:38:11;95333.40;;;11.11;51.05
6096;BME280;25081;42.698;23.298;2024-03-23T05:40:20;95334.37;;;11.26;48.97
6096;BME280;25081;42.698;23.298;2024-03-23T05:42:28;95335.23;;;9.62;49.32
6096;BME280;25081;42.698;23.298;2024-03-23T05:44:37;95339.20;;;7.77;54.39
6096;BME280;25081;42.698;23.298;2024-03-23T05:46:46;95339.47;;;7.64;55.68
6096;BME280;25081;42.698;23.298;2024-03-23T05:48:55;95342.50;;;7.37;56.63
6096;BME280;25081;42.698;23.298;2024-03-23T05:51:04;95347.12;;;6.77;58.87
6096;BME280;25081;42.698;23.298;2024-03-23T05:53:14;95343.91;;;6.71;59.28
6096;BME280;25081;42.698;23.298;2024-03-23T05:55:22;95348.12;;;6.37;60.62
6096;BME280;25081;42.698;23.298;2024-03-23T05:57:30;95342.11;;;5.96;62.10
6096;BME280;25081;42.698;23.298;2024-03-23T05:59:39;95338.17;;;5.82;62.76
6096;BME280;25081;42.698;23.298;2024-03-23T06:01:48;95347.64;;;5.65;63.47
6096;BME280;25081;42.698;23.298;2024-03-23T06:03:57;95345.45;;;5.43;64.12
6096;BME280;25081;42.698;23.298;2024-03-23T06:06:06;95344.00;;;5.26;64.79
6096;BME280;25081;42.698;23.298;2024-03-23T06:08:14;95339.63;;;5.33;65.03
6096;BME280;25081;42.698;23.298;2024-03-23T06:10:23;95340.32;;;5.31;65.56
6096;BME280;25081;42.698;23.298;2024-03-23T06:12:32;95339.05;;;5.12;66.18
6096;BME280;25081;42.698;23.298;2024-03-23T06:14:41;95343.95;;;4.86;67.88
6096;BME280;25081;42.698;23.298;2024-03-23T06:16:49;95347.78;;;5.93;72.05
6096;BME280;25081;42.698;23.298;2024-03-23T06:18:58;95337.99;;;6.69;65.46
6096;BME280;25081;42.698;23.298;2024-03-23T06:21:08;95344.59;;;6.30;63.25
6096;BME280;25081;42.698;23.298;2024-03-23T06:23:16;95334.55;;;5.79;64.08
6096;BME280;25081;42.698;23.298;2024-03-23T06:25:25;95332.56;;;5.00;66.49
6096;BME280;25081;42.698;23.298;2024-03-23T06:27:34;95333.20;;;5.17;67.21
6096;BME280;25081;42.698;23.298;2024-03-23T06:29:42;95334.43;;;5.10;66.86
6096;BME280;25081;42.698;23.298;2024-03-23T06:31:54;95335.03;;;4.87;67.59
6096;BME280;25081;42.698;23.298;2024-03-23T06:34:03;95343.05;;;5.08;67.44
6096;BME280;25081;42.698;23.298;2024-03-23T06:36:12;95337.74;;;5.38;66.47
6096;BME280;25081;42.698;23.298;2024-03-23T06:38:20;95335.06;;;5.27;66.46
6096;BME280;25081;42.698;23.298;2024-03-23T06:40:29;95335.44;;;5.24;67.01
6096;BME280;25081;42.698;23.298;2024-03-23T06:42:38;95306.50;;;5.27;66.08
6096;BME280;25081;42.698;23.298;2024-03-23T06:44:47;95332.32;;;5.50;66.09
6096;BME280;25081;42.698;23.298;2024-03-23T06:46:55;95312.61;;;5.53;65.79
6096;BME280;25081;42.698;23.298;2024-03-23T06:49:04;95333.92;;;5.11;66.65
6096;BME280;25081;42.698;23.298;2024-03-23T06:51:12;95334.06;;;5.43;66.80
6096;BME280;25081;42.698;23.298;2024-03-23T06:53:21;95335.64;;;6.10;64.27
6096;BME280;25081;42.698;23.298;2024-03-23T06:55:30;95324.63;;;8.33;57.19
6096;BME280;25081;42.698;23.298;2024-03-23T06:57:39;95315.56;;;10.62;52.09
6096;BME280;25081;42.698;23.298;2024-03-23T06:59:48;95306.45;;;13.58;43.53
6096;BME280;25081;42.698;23.298;2024-03-23T07:01:57;95313.16;;;11.67;44.77
6096;BME280;25081;42.698;23.298;2024-03-23T07:04:06;95301.88;;;13.82;42.29
6096;BME280;25081;42.698;23.298;2024-03-23T07:06:14;95299.11;;;15.90;37.65
6096;BME280;25081;42.698;23.298;2024-03-23T07:08:23;95296.97;;;16.68;35.38
6096;BME280;25081;42.698;23.298;2024-03-23T07:10:32;95294.00;;;16.67;33.25
6096;BME280;25081;42.698;23.298;2024-03-23T07:12:41;95294.00;;;16.67;33.25
6096;BME280;25081;42.698;23.298;2024-03-23T07:14:49;95291.30;;;16.37;34.25
6096;BME280;25081;42.698;23.298;2024-03-23T07:16:58;95293.69;;;15.46;35.78
6096;BME280;25081;42.698;23.298;2024-03-23T07:19:07;95287.09;;;16.71;34.11
6096;BME280;25081;42.698;23.298;2024-03-23T07:21:15;95278.91;;;17.72;31.98
6096;BME280;25081;42.698;23.298;2024-03-23T07:23:24;95282.14;;;16.36;33.39
6096;BME280;25081;42.698;23.298;2024-03-23T07:25:33;95292.64;;;14.46;38.52
6096;BME280;25081;42.698;23.298;2024-03-23T07:27:42;95281.69;;;17.03;34.01
6096;BME280;25081;42.698;23.298;2024-03-23T07:29:50;95274.63;;;19.00;30.76
6096;BME280;25081;42.698;23.298;2024-03-23T07:31:59;95274.05;;;19.56;29.35
6096;BME280;25081;42.698;23.298;2024-03-23T07:34:08;95277.03;;;18.63;30.04
6096;BME280;25081;42.698;23.298;2024-03-23T07:36:17;95262.81;;;20.01;28.45
6096;BME280;25081;42.698;23.298;2024-03-23T07:38:25;95264.59;;;21.07;27.75
6096;BME280;25081;42.698;23.298;2024-03-23T07:40:34;95236.83;;;20.89;27.21
6096;BME280;25081;42.698;23.298;2024-03-23T07:42:43;95267.80;;;19.71;28.24
6096;BME280;25081;42.698;23.298;2024-03-23T07:44:51;95267.14;;;20.96;27.28
6096;BME280;25081;42.698;23.298;2024-03-23T07:47:00;95270.50;;;18.41;28.90
6096;BME280;25081;42.698;23.298;2024-03-23T07:49:09;95277.50;;;15.60;34.58
6096;BME280;25081;42.698;23.298;2024-03-23T07:51:20;95263.88;;;17.86;31.37
6096;BME280;25081;42.698;23.298;2024-03-23T07:53:27;95254.98;;;19.94;29.00
6096;BME280;25081;42.698;23.298;2024-03-23T07:55:35;95258.19;;;20.58;28.18
6096;BME280;25081;42.698;23.298;2024-03-23T07:57:44;95256.20;;;21.06;27.44
6096;BME280;25081;42.698;23.298;2024-03-23T07:59:53;95252.94;;;21.88;26.61
6096;BME280;25081;42.698;23.298;2024-03-23T08:02:01;95249.29;;;21.50;26.07
6096;BME280;25081;42.698;23.298;2024-03-23T08:04:10;95248.17;;;21.78;25.83
6096;BME280;25081;42.698;23.298;2024-03-23T08:06:20;95252.25;;;20.54;27.46
6096;BME280;25081;42.698;23.298;2024-03-23T08:08:28;95254.60;;;20.68;27.29
6096;BME280;25081;42.698;23.298;2024-03-23T08:10:37;95246.42;;;21.39;26.52
6096;BME280;25081;42.698;23.298;2024-03-23T08:12:47;95242.06;;;21.40;26.09
6096;BME280;25081;42.698;23.298;2024-03-23T08:14:56;95248.12;;;20.67;26.96
6096;BME280;25081;42.698;23.298;2024-03-23T08:17:05;95243.05;;;21.52;26.97
6096;BME280;25081;42.698;23.298;2024-03-23T08:19:14;95233.97;;;22.69;25.29
6096;BME280;25081;42.698;23.298;2024-03-23T08:21:22;95237.89;;;22.98;24.15
6096;BME280;25081;42.698;23.298;2024-03-23T08:23:31;95244.30;;;22.88;24.86
6096;BME280;25081;42.698;23.298;2024-03-23T08:25:40;95234.23;;;22.51;25.97
6096;BME280;25081;42.698;23.298;2024-03-23T08:27:49;95235.08;;;22.49;25.19
6096;BME280;25081;42.698;23.298;2024-03-23T08:29:58;95245.98;;;19.09;28.46
6096;BME280;25081;42.698;23.298;2024-03-23T08:32:07;95235.38;;;20.65;27.82
6096;BME280;25081;42.698;23.298;2024-03-23T08:34:15;95229.77;;;21.75;26.44
6096;BME280;25081;42.698;23.298;2024-03-23T08:36:24;95225.94;;;20.13;27.64
6096;BME280;25081;42.698;23.298;2024-03-23T08:38:33;95216.95;;;21.56;26.50
6096;BME280;25081;42.698;23.298;2024-03-23T08:40:41;95215.75;;;23.92;24.06
6096;BME280;25081;42.698;23.298;2024-03-23T08:42:50;95220.36;;;23.20;25.04
6096;BME280;25081;42.698;23.298;2024-03-23T08:44:59;95183.50;;;23.28;24.04
6096;BME280;25081;42.698;23.298;2024-03-23T08:47:08;95214.66;;;22.68;25.11
6096;BME280;25081;42.698;23.298;2024-03-23T08:49:17;95211.27;;;22.76;24.54
6096;BME280;25081;42.698;23.298;2024-03-23T08:51:25;95210.75;;;21.27;27.07
6096;BME280;25081;42.698;23.298;2024-03-23T08:53:34;95199.75;;;22.49;25.43
6096;BME280;25081;42.698;23.298;2024-03-23T08:55:43;95195.94;;;22.50;25.28
6096;BME280;25081;42.698;23.298;2024-03-23T08:57:51;95200.69;;;22.93;24.63
6096;BME280;25081;42.698;23.298;2024-03-23T09:00:00;95193.12;;;24.19;23.90
6096;BME280;25081;42.698;23.298;2024-03-23T09:02:09;95194.19;;;23.68;24.35
6096;BME280;25081;42.698;23.298;2024-03-23T09:04:18;95187.17;;;25.62;22.26
6096;BME280;25081;42.698;23.298;2024-03-23T09:06:26;95182.51;;;25.01;22.23
6096;BME280;25081;42.698;23.298;2024-03-23T09:08:35;95185.67;;;24.83;22.72
6096;BME280;25081;42.698;23.298;2024-03-23T09:10:44;95182.39;;;23.42;24.27
6096;BME280;25081;42.698;23.298;2024-03-23T09:12:52;95178.16;;;24.55;23.25
6096;BME280;25081;42.698;23.298;2024-03-23T09:15:01;95161.87;;;25.28;21.75
6096;BME280;25081;42.698;23.298;2024-03-23T09:17:10;95165.78;;;23.58;23.95
6096;BME280;25081;42.698;23.298;2024-03-23T09:19:18;95160.58;;;24.72;23.01
6096;BME280;25081;42.698;23.298;2024-03-23T09:21:27;95164.46;;;24.58;22.87
6096;BME280;25081;42.698;23.298;2024-03-23T09:23:36;95155.34;;;23.49;23.56
6096;BME280;25081;42.698;23.298;2024-03-23T09:25:44;95155.68;;;24.72;22.79
6096;BME280;25081;42.698;23.298;2024-03-23T09:27:53;95143.52;;;25.11;21.96
6096;BME280;25081;42.698;23.298;2024-03-23T09:30:02;95143.47;;;24.80;22.15
6096;BME280;25081;42.698;23.298;2024-03-23T09:32:11;95142.16;;;24.19;22.71
6096;BME280;25081;42.698;23.298;2024-03-23T09:34:20;95137.42;;;23.75;23.18
6096;BME280;25081;42.698;23.298;2024-03-23T09:36:28;95139.92;;;23.30;23.98
6096;BME280;25081;42.698;23.298;2024-03-23T09:38:37;95128.58;;;24.75;22.85
6096;BME280;25081;42.698;23.298;2024-03-23T09:40:46;95122.90;;;25.17;21.98
6096;BME280;25081;42.698;23.298;2024-03-23T09:42:54;95131.03;;;22.97;23.70
6096;BME280;25081;42.698;23.298;2024-03-23T09:45:04;95120.95;;;21.74;25.31
6096;BME280;25081;42.698;23.298;2024-03-23T09:47:12;95119.30;;;22.15;24.95
6096;BME280;25081;42.698;23.298;2024-03-23T09:49:21;95109.30;;;24.02;23.80
6096;BME280;25081;42.698;23.298;2024-03-23T09:51:29;95106.86;;;25.92;21.56
6096;BME280;25081;42.698;23.298;2024-03-23T09:53:38;95104.26;;;23.59;23.10
6096;BME280;25081;42.698;23.298;2024-03-23T09:55:47;95101.52;;;24.99;22.07
6096;BME280;25081;42.698;23.298;2024-03-23T09:57:55;95100.86;;;24.93;21.63
6096;BME280;25081;42.698;23.298;2024-03-23T10:00:05;95099.06;;;23.19;23.46
6096;BME280;25081;42.698;23.298;2024-03-23T10:02:15;95102.61;;;22.90;24.18
6096;BME280;25081;42.698;23.298;2024-03-23T10:04:38;95094.19;;;21.19;25.76
6096;BME280;25081;42.698;23.298;2024-03-23T10:06:47;95092.85;;;19.51;28.04
6096;BME280;25081;42.698;23.298;2024-03-23T10:08:55;95089.64;;;20.30;27.65
6096;BME280;25081;42.698;23.298;2024-03-23T10:11:14;95069.07;;;22.32;24.95
6096;BME280;25081;42.698;23.298;2024-03-23T10:13:26;95094.73;;;17.84;29.80
6096;BME280;25081;42.698;23.298;2024-03-23T10:15:35;95084.30;;;16.68;32.41
6096;BME280;25081;42.698;23.298;2024-03-23T10:17:44;95086.86;;;17.62;30.11
6096;BME280;25081;42.698;23.298;2024-03-23T10:19:53;95074.64;;;19.72;28.56
6096;BME280;25081;42.698;23.298;2024-03-23T10:22:01;95068.05;;;19.34;28.41
6096;BME280;25081;42.698;23.298;2024-03-23T10:24:11;95066.12;;;20.83;26.46
6096;BME280;25081;42.698;23.298;2024-03-23T10:26:21;95063.70;;;18.73;28.79
6096;BME280;25081;42.698;23.298;2024-03-23T10:28:29;95060.46;;;18.56;28.63
6096;BME280;25081;42.698;23.298;2024-03-23T10:30:38;95054.14;;;20.90;25.87
6096;BME280;25081;42.698;23.298;2024-03-23T10:32:47;95050.90;;;21.11;25.51
6096;BME280;25081;42.698;23.298;2024-03-23T10:34:55;95048.16;;;21.38;26.10
6096;BME280;25081;42.698;23.298;2024-03-23T10:37:05;95042.88;;;21.28;26.15
6096;BME280;25081;42.698;23.298;2024-03-23T10:39:13;95042.58;;;19.45;28.17
6096;BME280;25081;42.698;23.298;2024-03-23T10:41:22;95033.97;;;19.40;28.22
6096;BME280;25081;42.698;23.298;2024-03-23T10:43:31;95032.91;;;20.73;26.37
6096;BME280;25081;42.698;23.298;2024-03-23T10:45:40;95029.21;;;20.66;26.76
6096;BME280;25081;42.698;23.298;2024-03-23T10:47:48;95019.76;;;21.09;26.64
6096;BME280;25081;42.698;23.298;2024-03-23T10:49:57;95014.79;;;20.42;27.51
6096;BME280;25081;42.698;23.298;2024-03-23T10:52:07;95009.00;;;20.80;27.08
6096;BME280;25081;42.698;23.298;2024-03-23T10:54:15;94985.41;;;21.80;25.68
6096;BME280;25081;42.698;23.298;2024-03-23T10:56:24;94997.70;;;22.42;25.20
6096;BME280;25081;42.698;23.298;2024-03-23T10:58:37;94992.09;;;21.87;25.15
6096;BME280;25081;42.698;23.298;2024-03-23T11:00:41;94987.91;;;20.77;26.18
6096;BME280;25081;42.698;23.298;2024-03-23T11:02:50;94984.41;;;19.01;28.42
6096;BME280;25081;42.698;23.298;2024-03-23T11:04:59;94964.37;;;20.72;27.03
6096;BME280;25081;42.698;23.298;2024-03-23T11:09:53;94970.41;;;21.31;25.92
6096;BME280;25081;42.698;23.298;2024-03-23T11:12:01;94967.12;;;20.70;26.17
6096;BME280;25081;42.698;23.298;2024-03-23T11:14:21;94958.03;;;20.32;26.11
6096;BME280;25081;42.698;23.298;2024-03-23T11:16:24;94955.19;;;19.13;28.08
6096;BME280;25081;42.698;23.298;2024-03-23T11:18:32;94953.63;;;17.12;30.81
6096;BME280;25081;42.698;23.298;2024-03-23T11:20:41;94946.67;;;17.67;30.44
6096;BME280;25081;42.698;23.298;2024-03-23T11:22:50;94947.98;;;17.27;30.54
6096;BME280;25081;42.698;23.298;2024-03-23T11:24:59;94936.41;;;17.44;30.64
6096;BME280;25081;42.698;23.298;2024-03-23T11:27:18;94936.41;;;17.44;30.64
6096;BME280;25081;42.698;23.298;2024-03-23T11:29:26;94940.91;;;16.87;31.15
6096;BME280;25081;42.698;23.298;2024-03-23T11:31:35;94938.19;;;16.75;31.83
6096;BME280;25081;42.698;23.298;2024-03-23T11:33:44;94927.17;;;16.81;31.62
6096;BME280;25081;42.698;23.298;2024-03-23T11:35:52;94925.53;;;18.36;30.13
6096;BME280;25081;42.698;23.298;2024-03-23T11:38:05;94912.49;;;19.12;28.23
6096;BME280;25081;42.698;23.298;2024-03-23T11:40:21;94909.14;;;18.81;28.63
6096;BME280;25081;42.698;23.298;2024-03-23T11:42:30;94909.14;;;18.81;28.63
6096;BME280;25081;42.698;23.298;2024-03-23T11:44:39;94900.44;;;18.95;28.17
6096;BME280;25081;42.698;23.298;2024-03-23T11:46:47;94900.73;;;18.88;28.80
6096;BME280;25081;42.698;23.298;2024-03-23T11:48:56;94895.36;;;18.85;28.31
6096;BME280;25081;42.698;23.298;2024-03-23T11:51:05;94893.16;;;19.32;28.14
6096;BME280;25081;42.698;23.298;2024-03-23T11:53:16;94889.20;;;19.16;27.94
6096;BME280;25081;42.698;23.298;2024-03-23T11:55:24;94883.08;;;19.06;27.92
6096;BME280;25081;42.698;23.298;2024-03-23T11:57:32;94879.04;;;18.49;28.29
6096;BME280;25081;42.698;23.298;2024-03-23T11:59:41;94866.89;;;17.33;29.62
6096;BME280;25081;42.698;23.298;2024-03-23T12:01:50;94866.89;;;17.33;29.62
6096;BME280;25081;42.698;23.298;2024-03-23T12:03:58;94860.69;;;17.40;29.46
6096;BME280;25081;42.698;23.298;2024-03-23T12:06:07;94861.49;;;17.05;30.51
6096;BME280;25081;42.698;23.298;2024-03-23T12:08:23;94855.02;;;17.06;29.87
6096;BME280;25081;42.698;23.298;2024-03-23T12:10:31;94850.42;;;17.68;29.84
6096;BME280;25081;42.698;23.298;2024-03-23T12:12:40;94828.84;;;17.63;29.43
6096;BME280;25081;42.698;23.298;2024-03-23T12:15:02;94828.84;;;17.63;29.43
6096;BME280;25081;42.698;23.298;2024-03-23T12:17:12;94835.76;;;18.10;28.98
6096;BME280;25081;42.698;23.298;2024-03-23T12:19:20;94831.75;;;17.86;29.03
6096;BME280;25081;42.698;23.298;2024-03-23T12:21:29;94826.14;;;17.76;27.42
6096;BME280;25081;42.698;23.298;2024-03-23T12:23:39;94819.40;;;17.86;26.94